sensor_id;sensor_type;location;lat;lon;timestamp;P1;durP1;ratioP1;P2;durP2;ratioP2
26082;SDS011;13848;49.018;12.078;2023-12-20T00:00:05;9.13;;;6.13;;
26082;SDS011;13848;49.018;12.078;2023-12-20T00:02:31;10.90;;;6.25;;
26082;SDS011;13848;49.018;12.078;2023-12-20T00:04:57;8.02;;;5.55;;
26082;SDS011;13848;49.018;12.078;2023-12-20T00:07:23;11.68;;;5.80;;
26082;SDS011;13848;49.018;12.078;2023-12-20T00:09:49;9.93;;;6.20;;
26082;SDS011;13848;49.018;12.078;2023-12-20T00:12:16;9.90;;;6.43;;
26082;SDS011;13848;49.018;12.078;2023-12-20T00:14:42;9.20;;;5.93;;
26082;SDS011;13848;49.018;12.078;2023-12-20T00:17:08;10.32;;;6.00;;
26082;SDS011;13848;49.018;12.078;2023-12-20T00:19:34;9.20;;;5.75;;
26082;SDS011;13848;49.018;12.078;2023-12-20T00:22:00;10.35;;;5.90;;
26082;SDS011;13848;49.018;12.078;2023-12-20T00:24:26;8.73;;;5.55;;
26082;SDS011;13848;49.018;12.078;2023-12-20T00:26:52;9.32;;;6.18;;
26082;SDS011;13848;49.018;12.078;2023-12-20T00:29:19;11.70;;;6.60;;
26082;SDS011;13848;49.018;12.078;2023-12-20T00:31:45;9.35;;;5.88;;
26082;SDS011;13848;49.018;12.078;2023-12-20T00:34:11;11.18;;;6.00;;
26082;SDS011;13848;49.018;12.078;2023-12-20T00:36:37;11.13;;;6.25;;
26082;SDS011;13848;49.018;12.078;2023-12-20T00:39:03;10.70;;;6.70;;
26082;SDS011;13848;49.018;12.078;2023-12-20T00:41:29;10.63;;;6.18;;
26082;SDS011;13848;49.018;12.078;2023-12-20T00:43:55;11.45;;;6.68;;
26082;SDS011;13848;49.018;12.078;2023-12-20T00:46:22;10.80;;;5.95;;
26082;SDS011;13848;49.018;12.078;2023-12-20T00:48:48;9.25;;;5.80;;
26082;SDS011;13848;49.018;12.078;2023-12-20T00:51:14;9.32;;;5.50;;
26082;SDS011;13848;49.018;12.078;2023-12-20T00:53:40;9.88;;;6.40;;
26082;SDS011;13848;49.018;12.078;2023-12-20T00:56:06;9.30;;;5.75;;
26082;SDS011;13848;49.018;12.078;2023-12-20T00:58:32;9.68;;;5.93;;
26082;SDS011;13848;49.018;12.078;2023-12-20T01:00:58;10.18;;;5.97;;
26082;SDS011;13848;49.018;12.078;2023-12-20T01:03:25;8.75;;;5.40;;
26082;SDS011;13848;49.018;12.078;2023-12-20T01:05:51;10.00;;;6.00;;
26082;SDS011;13848;49.018;12.078;2023-12-20T01:08:17;9.30;;;6.25;;
26082;SDS011;13848;49.018;12.078;2023-12-20T01:10:43;8.35;;;5.90;;
26082;SDS011;13848;49.018;12.078;2023-12-20T01:13:08;9.02;;;5.82;;
26082;SDS011;13848;49.018;12.078;2023-12-20T01:15:34;10.82;;;5.63;;
26082;SDS011;13848;49.018;12.078;2023-12-20T01:18:00;10.32;;;5.75;;
26082;SDS011;13848;49.018;12.078;2023-12-20T01:20:28;8.15;;;5.60;;
26082;SDS011;13848;49.018;12.078;2023-12-20T01:22:53;10.27;;;5.72;;
26082;SDS011;13848;49.018;12.078;2023-12-20T01:25:19;10.02;;;5.97;;
26082;SDS011;13848;49.018;12.078;2023-12-20T01:27:45;10.73;;;6.00;;
26082;SDS011;13848;49.018;12.078;2023-12-20T01:30:11;8.98;;;5.82;;
26082;SDS011;13848;49.018;12.078;2023-12-20T01:32:38;8.65;;;5.78;;
26082;SDS011;13848;49.018;12.078;2023-12-20T01:35:04;8.35;;;5.97;;
26082;SDS011;13848;49.018;12.078;2023-12-20T01:37:31;11.30;;;6.05;;
26082;SDS011;13848;49.018;12.078;2023-12-20T01:39:57;9.52;;;6.10;;
26082;SDS011;13848;49.018;12.078;2023-12-20T01:42:23;11.43;;;6.45;;
26082;SDS011;13848;49.018;12.078;2023-12-20T01:44:49;11.52;;;6.15;;
26082;SDS011;13848;49.018;12.078;2023-12-20T01:47:15;10.15;;;6.50;;
26082;SDS011;13848;49.018;12.078;2023-12-20T01:49:42;15.73;;;6.50;;
26082;SDS011;13848;49.018;12.078;2023-12-20T01:52:08;10.23;;;5.88;;
26082;SDS011;13848;49.018;12.078;2023-12-20T01:54:36;12.75;;;6.25;;
26082;SDS011;13848;49.018;12.078;2023-12-20T01:57:04;9.63;;;6.15;;
26082;SDS011;13848;49.018;12.078;2023-12-20T01:59:31;9.15;;;5.90;;
26082;SDS011;13848;49.018;12.078;2023-12-20T02:01:58;8.82;;;5.78;;
26082;SDS011;13848;49.018;12.078;2023-12-20T02:04:24;12.20;;;5.70;;
26082;SDS011;13848;49.018;12.078;2023-12-20T02:06:52;9.85;;;5.82;;
26082;SDS011;13848;49.018;12.078;2023-12-20T02:09:18;11.75;;;6.60;;
26082;SDS011;13848;49.018;12.078;2023-12-20T02:11:46;12.40;;;6.43;;
26082;SDS011;13848;49.018;12.078;2023-12-20T02:14:12;9.85;;;6.05;;
26082;SDS011;13848;49.018;12.078;2023-12-20T02:16:37;10.15;;;5.80;;
26082;SDS011;13848;49.018;12.078;2023-12-20T02:19:04;7.85;;;5.65;;
26082;SDS011;13848;49.018;12.078;2023-12-20T02:21:36;9.38;;;5.68;;
26082;SDS011;13848;49.018;12.078;2023-12-20T02:24:02;8.85;;;5.60;;
26082;SDS011;13848;49.018;12.078;2023-12-20T02:26:28;10.07;;;5.00;;
26082;SDS011;13848;49.018;12.078;2023-12-20T02:28:54;9.02;;;5.07;;
26082;SDS011;13848;49.018;12.078;2023-12-20T02:31:20;8.00;;;5.07;;
26082;SDS011;13848;49.018;12.078;2023-12-20T02:33:46;9.48;;;4.85;;
26082;SDS011;13848;49.018;12.078;2023-12-20T02:36:12;8.23;;;5.18;;
26082;SDS011;13848;49.018;12.078;2023-12-20T02:38:39;8.30;;;4.68;;
26082;SDS011;13848;49.018;12.078;2023-12-20T02:41:05;7.13;;;4.43;;
26082;SDS011;13848;49.018;12.078;2023-12-20T02:43:31;8.18;;;5.15;;
26082;SDS011;13848;49.018;12.078;2023-12-20T02:45:57;12.93;;;5.05;;
26082;SDS011;13848;49.018;12.078;2023-12-20T02:48:23;8.98;;;4.90;;
26082;SDS011;13848;49.018;12.078;2023-12-20T02:50:49;7.13;;;4.60;;
26082;SDS011;13848;49.018;12.078;2023-12-20T02:53:15;9.10;;;4.85;;
26082;SDS011;13848;49.018;12.078;2023-12-20T02:55:42;7.90;;;4.60;;
26082;SDS011;13848;49.018;12.078;2023-12-20T02:58:08;6.55;;;4.63;;
26082;SDS011;13848;49.018;12.078;2023-12-20T03:00:34;6.03;;;4.18;;
26082;SDS011;13848;49.018;12.078;2023-12-20T03:03:00;6.50;;;4.47;;
26082;SDS011;13848;49.018;12.078;2023-12-20T03:05:26;8.35;;;4.78;;
26082;SDS011;13848;49.018;12.078;2023-12-20T03:07:52;8.13;;;4.90;;
26082;SDS011;13848;49.018;12.078;2023-12-20T03:10:18;6.13;;;4.18;;
26082;SDS011;13848;49.018;12.078;2023-12-20T03:12:45;7.40;;;4.10;;
26082;SDS011;13848;49.018;12.078;2023-12-20T03:15:11;6.55;;;4.40;;
26082;SDS011;13848;49.018;12.078;2023-12-20T03:17:37;6.55;;;4.15;;
26082;SDS011;13848;49.018;12.078;2023-12-20T03:20:04;7.47;;;4.30;;
26082;SDS011;13848;49.018;12.078;2023-12-20T03:22:30;8.40;;;4.03;;
26082;SDS011;13848;49.018;12.078;2023-12-20T03:24:56;9.13;;;4.32;;
26082;SDS011;13848;49.018;12.078;2023-12-20T03:27:22;9.20;;;4.40;;
26082;SDS011;13848;49.018;12.078;2023-12-20T03:29:49;10.05;;;3.97;;
26082;SDS011;13848;49.018;12.078;2023-12-20T03:32:15;5.88;;;3.83;;
26082;SDS011;13848;49.018;12.078;2023-12-20T03:34:41;5.80;;;3.90;;
26082;SDS011;13848;49.018;12.078;2023-12-20T03:37:07;5.80;;;3.78;;
26082;SDS011;13848;49.018;12.078;2023-12-20T03:39:33;6.68;;;4.10;;
26082;SDS011;13848;49.018;12.078;2023-12-20T03:41:59;6.32;;;3.90;;
26082;SDS011;13848;49.018;12.078;2023-12-20T03:44:25;4.78;;;3.45;;
26082;SDS011;13848;49.018;12.078;2023-12-20T03:46:52;7.38;;;3.85;;
26082;SDS011;13848;49.018;12.078;2023-12-20T03:49:18;5.68;;;3.65;;
26082;SDS011;13848;49.018;12.078;2023-12-20T03:51:44;6.90;;;3.78;;
26082;SDS011;13848;49.018;12.078;2023-12-20T03:54:10;4.15;;;3.50;;
26082;SDS011;13848;49.018;12.078;2023-12-20T03:56:36;5.47;;;3.58;;
26082;SDS011;13848;49.018;12.078;2023-12-20T03:59:02;7.45;;;3.55;;
26082;SDS011;13848;49.018;12.078;2023-12-20T04:01:28;5.25;;;3.63;;
26082;SDS011;13848;49.018;12.078;2023-12-20T04:03:55;5.93;;;3.30;;
26082;SDS011;13848;49.018;12.078;2023-12-20T04:06:21;8.07;;;3.80;;
26082;SDS011;13848;49.018;12.078;2023-12-20T04:08:47;4.55;;;3.50;;
26082;SDS011;13848;49.018;12.078;2023-12-20T04:11:13;5.50;;;3.65;;
26082;SDS011;13848;49.018;12.078;2023-12-20T04:13:39;6.57;;;3.55;;
26082;SDS011;13848;49.018;12.078;2023-12-20T04:16:05;5.20;;;3.65;;
26082;SDS011;13848;49.018;12.078;2023-12-20T04:18:31;7.05;;;3.60;;
26082;SDS011;13848;49.018;12.078;2023-12-20T04:20:58;7.50;;;3.60;;
26082;SDS011;13848;49.018;12.078;2023-12-20T04:23:24;4.45;;;3.15;;
26082;SDS011;13848;49.018;12.078;2023-12-20T04:25:50;5.25;;;3.33;;
26082;SDS011;13848;49.018;12.078;2023-12-20T04:28:16;7.85;;;3.17;;
26082;SDS011;13848;49.018;12.078;2023-12-20T04:30:42;4.18;;;3.33;;
26082;SDS011;13848;49.018;12.078;2023-12-20T04:33:08;5.43;;;2.80;;
26082;SDS011;13848;49.018;12.078;2023-12-20T04:35:34;5.03;;;3.10;;
26082;SDS011;13848;49.018;12.078;2023-12-20T04:38:01;4.22;;;2.80;;
26082;SDS011;13848;49.018;12.078;2023-12-20T04:40:27;3.90;;;2.90;;
26082;SDS011;13848;49.018;12.078;2023-12-20T04:42:53;4.60;;;3.30;;
26082;SDS011;13848;49.018;12.078;2023-12-20T04:45:19;4.85;;;2.78;;
26082;SDS011;13848;49.018;12.078;2023-12-20T04:47:45;4.53;;;3.00;;
26082;SDS011;13848;49.018;12.078;2023-12-20T04:50:11;4.55;;;3.15;;
26082;SDS011;13848;49.018;12.078;2023-12-20T04:52:37;5.05;;;3.20;;
26082;SDS011;13848;49.018;12.078;2023-12-20T04:55:04;3.65;;;2.90;;
26082;SDS011;13848;49.018;12.078;2023-12-20T04:57:31;4.00;;;3.08;;
26082;SDS011;13848;49.018;12.078;2023-12-20T04:59:56;4.00;;;2.88;;
26082;SDS011;13848;49.018;12.078;2023-12-20T05:02:22;5.40;;;2.80;;
26082;SDS011;13848;49.018;12.078;2023-12-20T05:04:48;3.55;;;2.67;;
26082;SDS011;13848;49.018;12.078;2023-12-20T05:07:14;4.28;;;2.65;;
26082;SDS011;13848;49.018;12.078;2023-12-20T05:09:40;5.57;;;3.10;;
26082;SDS011;13848;49.018;12.078;2023-12-20T05:12:08;3.80;;;2.65;;
26082;SDS011;13848;49.018;12.078;2023-12-20T05:14:34;2.67;;;2.22;;
26082;SDS011;13848;49.018;12.078;2023-12-20T05:17:00;3.95;;;2.90;;
26082;SDS011;13848;49.018;12.078;2023-12-20T05:19:25;3.28;;;2.30;;
26082;SDS011;13848;49.018;12.078;2023-12-20T05:21:51;3.00;;;2.00;;
26082;SDS011;13848;49.018;12.078;2023-12-20T05:24:17;11.13;;;4.57;;
26082;SDS011;13848;49.018;12.078;2023-12-20T05:26:43;5.00;;;3.35;;
26082;SDS011;13848;49.018;12.078;2023-12-20T05:29:10;3.45;;;2.33;;
26082;SDS011;13848;49.018;12.078;2023-12-20T05:31:36;2.42;;;1.90;;
26082;SDS011;13848;49.018;12.078;2023-12-20T05:34:02;2.75;;;2.10;;
26082;SDS011;13848;49.018;12.078;2023-12-20T05:36:28;4.43;;;2.38;;
26082;SDS011;13848;49.018;12.078;2023-12-20T05:38:54;6.60;;;2.28;;
26082;SDS011;13848;49.018;12.078;2023-12-20T05:41:20;3.05;;;2.40;;
26082;SDS011;13848;49.018;12.078;2023-12-20T05:43:46;9.32;;;2.95;;
26082;SDS011;13848;49.018;12.078;2023-12-20T05:46:13;3.85;;;2.30;;
26082;SDS011;13848;49.018;12.078;2023-12-20T05:48:39;4.50;;;2.80;;
26082;SDS011;13848;49.018;12.078;2023-12-20T05:51:05;6.75;;;2.60;;
26082;SDS011;13848;49.018;12.078;2023-12-20T05:53:31;8.48;;;2.50;;
26082;SDS011;13848;49.018;12.078;2023-12-20T05:55:57;5.95;;;2.80;;
26082;SDS011;13848;49.018;12.078;2023-12-20T05:58:23;5.50;;;2.75;;
26082;SDS011;13848;49.018;12.078;2023-12-20T06:00:49;3.08;;;2.22;;
26082;SDS011;13848;49.018;12.078;2023-12-20T06:03:16;4.15;;;2.45;;
26082;SDS011;13848;49.018;12.078;2023-12-20T06:05:42;2.75;;;2.10;;
26082;SDS011;13848;49.018;12.078;2023-12-20T06:08:08;2.78;;;2.20;;
26082;SDS011;13848;49.018;12.078;2023-12-20T06:10:34;2.92;;;2.13;;
26082;SDS011;13848;49.018;12.078;2023-12-20T06:13:00;3.22;;;2.30;;
26082;SDS011;13848;49.018;12.078;2023-12-20T06:15:26;6.38;;;2.17;;
26082;SDS011;13848;49.018;12.078;2023-12-20T06:17:52;3.03;;;2.20;;
26082;SDS011;13848;49.018;12.078;2023-12-20T06:20:19;6.00;;;2.05;;
26082;SDS011;13848;49.018;12.078;2023-12-20T06:22:45;3.63;;;2.00;;
26082;SDS011;13848;49.018;12.078;2023-12-20T06:25:11;3.33;;;2.33;;
26082;SDS011;13848;49.018;12.078;2023-12-20T06:27:37;2.58;;;1.80;;
26082;SDS011;13848;49.018;12.078;2023-12-20T06:30:03;2.47;;;1.52;;
26082;SDS011;13848;49.018;12.078;2023-12-20T06:32:29;2.40;;;1.50;;
26082;SDS011;13848;49.018;12.078;2023-12-20T06:34:55;1.88;;;1.58;;
26082;SDS011;13848;49.018;12.078;2023-12-20T06:37:23;1.58;;;1.38;;
26082;SDS011;13848;49.018;12.078;2023-12-20T06:39:48;1.90;;;1.40;;
26082;SDS011;13848;49.018;12.078;2023-12-20T06:42:14;1.10;;;0.90;;
26082;SDS011;13848;49.018;12.078;2023-12-20T06:44:40;2.22;;;1.08;;
26082;SDS011;13848;49.018;12.078;2023-12-20T06:47:06;0.90;;;0.80;;
26082;SDS011;13848;49.018;12.078;2023-12-20T06:49:34;3.20;;;0.80;;
26082;SDS011;13848;49.018;12.078;2023-12-20T06:51:59;0.63;;;0.50;;
26082;SDS011;13848;49.018;12.078;2023-12-20T06:54:27;0.70;;;0.70;;
26082;SDS011;13848;49.018;12.078;2023-12-20T06:56:53;0.50;;;0.50;;
26082;SDS011;13848;49.018;12.078;2023-12-20T06:59:19;0.70;;;0.70;;
26082;SDS011;13848;49.018;12.078;2023-12-20T07:01:47;0.70;;;0.70;;
26082;SDS011;13848;49.018;12.078;2023-12-20T07:04:13;0.50;;;0.50;;
26082;SDS011;13848;49.018;12.078;2023-12-20T07:06:39;0.50;;;0.50;;
26082;SDS011;13848;49.018;12.078;2023-12-20T07:09:05;0.40;;;0.40;;
26082;SDS011;13848;49.018;12.078;2023-12-20T07:11:32;0.70;;;0.70;;
26082;SDS011;13848;49.018;12.078;2023-12-20T07:13:58;0.70;;;0.70;;
26082;SDS011;13848;49.018;12.078;2023-12-20T07:16:24;0.60;;;0.60;;
26082;SDS011;13848;49.018;12.078;2023-12-20T07:18:50;0.50;;;0.50;;
26082;SDS011;13848;49.018;12.078;2023-12-20T07:21:16;0.95;;;0.52;;
26082;SDS011;13848;49.018;12.078;2023-12-20T07:23:42;0.65;;;0.57;;
26082;SDS011;13848;49.018;12.078;2023-12-20T07:26:08;0.93;;;0.63;;
26082;SDS011;13848;49.018;12.078;2023-12-20T07:28:35;0.50;;;0.50;;
26082;SDS011;13848;49.018;12.078;2023-12-20T07:31:01;0.43;;;0.43;;
26082;SDS011;13848;49.018;12.078;2023-12-20T07:33:27;0.75;;;0.60;;
26082;SDS011;13848;49.018;12.078;2023-12-20T07:35:53;0.90;;;0.60;;
26082;SDS011;13848;49.018;12.078;2023-12-20T07:38:19;0.73;;;0.73;;
26082;SDS011;13848;49.018;12.078;2023-12-20T07:40:45;0.50;;;0.50;;
26082;SDS011;13848;49.018;12.078;2023-12-20T07:43:11;0.80;;;0.50;;
26082;SDS011;13848;49.018;12.078;2023-12-20T07:45:38;0.60;;;0.60;;
26082;SDS011;13848;49.018;12.078;2023-12-20T07:48:04;0.82;;;0.40;;
26082;SDS011;13848;49.018;12.078;2023-12-20T07:50:32;0.40;;;0.40;;
26082;SDS011;13848;49.018;12.078;2023-12-20T07:52:58;0.55;;;0.55;;
26082;SDS011;13848;49.018;12.078;2023-12-20T07:55:23;0.60;;;0.60;;
26082;SDS011;13848;49.018;12.078;2023-12-20T07:57:49;1.58;;;0.50;;
26082;SDS011;13848;49.018;12.078;2023-12-20T08:00:16;2.92;;;0.60;;
26082;SDS011;13848;49.018;12.078;2023-12-20T08:02:43;0.73;;;0.63;;
26082;SDS011;13848;49.018;12.078;2023-12-20T08:05:09;0.50;;;0.50;;
26082;SDS011;13848;49.018;12.078;2023-12-20T08:07:35;0.80;;;0.60;;
26082;SDS011;13848;49.018;12.078;2023-12-20T08:10:01;1.60;;;0.80;;
26082;SDS011;13848;49.018;12.078;2023-12-20T08:12:27;1.30;;;0.60;;
26082;SDS011;13848;49.018;12.078;2023-12-20T08:14:53;1.38;;;0.88;;
26082;SDS011;13848;49.018;12.078;2023-12-20T08:17:19;0.60;;;0.60;;
26082;SDS011;13848;49.018;12.078;2023-12-20T08:19:47;0.80;;;0.68;;
26082;SDS011;13848;49.018;12.078;2023-12-20T08:22:13;0.52;;;0.50;;
26082;SDS011;13848;49.018;12.078;2023-12-20T08:24:39;1.02;;;0.70;;
26082;SDS011;13848;49.018;12.078;2023-12-20T08:27:05;1.85;;;0.50;;
26082;SDS011;13848;49.018;12.078;2023-12-20T08:29:31;1.83;;;0.80;;
26082;SDS011;13848;49.018;12.078;2023-12-20T08:31:57;0.57;;;0.57;;
26082;SDS011;13848;49.018;12.078;2023-12-20T08:34:23;1.70;;;0.70;;
26082;SDS011;13848;49.018;12.078;2023-12-20T08:36:50;0.63;;;0.63;;
26082;SDS011;13848;49.018;12.078;2023-12-20T08:39:16;0.80;;;0.65;;
26082;SDS011;13848;49.018;12.078;2023-12-20T08:41:42;1.15;;;0.75;;
26082;SDS011;13848;49.018;12.078;2023-12-20T08:44:08;1.27;;;0.88;;
26082;SDS011;13848;49.018;12.078;2023-12-20T08:46:34;1.00;;;0.60;;
26082;SDS011;13848;49.018;12.078;2023-12-20T08:49:00;0.80;;;0.70;;
26082;SDS011;13848;49.018;12.078;2023-12-20T08:51:26;0.88;;;0.80;;
26082;SDS011;13848;49.018;12.078;2023-12-20T08:53:54;0.70;;;0.70;;
26082;SDS011;13848;49.018;12.078;2023-12-20T08:56:20;0.88;;;0.70;;
26082;SDS011;13848;49.018;12.078;2023-12-20T08:58:46;2.05;;;0.80;;
26082;SDS011;13848;49.018;12.078;2023-12-20T09:01:12;0.73;;;0.70;;
26082;SDS011;13848;49.018;12.078;2023-12-20T09:03:38;1.05;;;0.63;;
26082;SDS011;13848;49.018;12.078;2023-12-20T09:06:04;0.60;;;0.52;;
26082;SDS011;13848;49.018;12.078;2023-12-20T09:08:30;0.50;;;0.50;;
26082;SDS011;13848;49.018;12.078;2023-12-20T09:10:58;1.35;;;0.80;;
26082;SDS011;13848;49.018;12.078;2023-12-20T09:13:24;5.05;;;2.75;;
26082;SDS011;13848;49.018;12.078;2023-12-20T09:15:50;4.00;;;1.85;;
26082;SDS011;13848;49.018;12.078;2023-12-20T09:18:16;2.50;;;1.00;;
26082;SDS011;13848;49.018;12.078;2023-12-20T09:20:42;1.38;;;1.13;;
26082;SDS011;13848;49.018;12.078;2023-12-20T09:23:07;1.20;;;1.00;;
26082;SDS011;13848;49.018;12.078;2023-12-20T09:25:33;2.17;;;1.02;;
26082;SDS011;13848;49.018;12.078;2023-12-20T09:28:01;1.52;;;0.90;;
26082;SDS011;13848;49.018;12.078;2023-12-20T09:30:27;0.73;;;0.70;;
26082;SDS011;13848;49.018;12.078;2023-12-20T09:32:52;1.27;;;0.93;;
26082;SDS011;13848;49.018;12.078;2023-12-20T09:35:18;2.17;;;0.90;;
26082;SDS011;13848;49.018;12.078;2023-12-20T09:37:44;1.02;;;0.85;;
26082;SDS011;13848;49.018;12.078;2023-12-20T09:40:11;1.00;;;0.90;;
26082;SDS011;13848;49.018;12.078;2023-12-20T09:42:39;1.05;;;0.80;;
26082;SDS011;13848;49.018;12.078;2023-12-20T09:45:15;3.05;;;1.20;;
26082;SDS011;13848;49.018;12.078;2023-12-20T09:47:41;2.25;;;1.40;;
26082;SDS011;13848;49.018;12.078;2023-12-20T09:50:08;1.13;;;1.02;;
26082;SDS011;13848;49.018;12.078;2023-12-20T09:52:35;1.65;;;1.45;;
26082;SDS011;13848;49.018;12.078;2023-12-20T09:55:02;1.60;;;1.17;;
26082;SDS011;13848;49.018;12.078;2023-12-20T09:57:30;4.20;;;1.50;;
26082;SDS011;13848;49.018;12.078;2023-12-20T09:59:56;2.30;;;1.58;;
26082;SDS011;13848;49.018;12.078;2023-12-20T10:02:23;2.03;;;1.63;;
26082;SDS011;13848;49.018;12.078;2023-12-20T10:04:50;2.25;;;1.58;;
26082;SDS011;13848;49.018;12.078;2023-12-20T10:07:16;3.60;;;1.40;;
26082;SDS011;13848;49.018;12.078;2023-12-20T10:09:42;1.58;;;1.23;;
26082;SDS011;13848;49.018;12.078;2023-12-20T10:12:09;1.50;;;1.40;;
26082;SDS011;13848;49.018;12.078;2023-12-20T10:14:35;4.45;;;1.20;;
26082;SDS011;13848;49.018;12.078;2023-12-20T10:17:02;1.17;;;1.00;;
26082;SDS011;13848;49.018;12.078;2023-12-20T10:19:30;1.10;;;1.00;;
26082;SDS011;13848;49.018;12.078;2023-12-20T10:21:56;1.15;;;1.05;;
26082;SDS011;13848;49.018;12.078;2023-12-20T10:24:24;1.00;;;0.90;;
26082;SDS011;13848;49.018;12.078;2023-12-20T10:26:58;1.00;;;0.88;;
26082;SDS011;13848;49.018;12.078;2023-12-20T10:29:27;1.15;;;0.70;;
26082;SDS011;13848;49.018;12.078;2023-12-20T10:31:52;0.60;;;0.60;;
26082;SDS011;13848;49.018;12.078;2023-12-20T10:34:18;1.85;;;0.80;;
26082;SDS011;13848;49.018;12.078;2023-12-20T10:36:46;0.75;;;0.75;;
26082;SDS011;13848;49.018;12.078;2023-12-20T10:39:12;0.90;;;0.90;;
26082;SDS011;13848;49.018;12.078;2023-12-20T10:41:40;2.72;;;0.90;;
26082;SDS011;13848;49.018;12.078;2023-12-20T10:44:07;1.60;;;0.85;;
26082;SDS011;13848;49.018;12.078;2023-12-20T10:46:35;0.93;;;0.82;;
26082;SDS011;13848;49.018;12.078;2023-12-20T10:49:02;1.67;;;1.10;;
26082;SDS011;13848;49.018;12.078;2023-12-20T10:51:28;0.93;;;0.90;;
26082;SDS011;13848;49.018;12.078;2023-12-20T10:53:55;1.33;;;1.00;;
26082;SDS011;13848;49.018;12.078;2023-12-20T10:56:22;3.20;;;1.30;;
26082;SDS011;13848;49.018;12.078;2023-12-20T10:58:48;3.17;;;1.20;;
26082;SDS011;13848;49.018;12.078;2023-12-20T11:01:15;2.38;;;1.65;;
26082;SDS011;13848;49.018;12.078;2023-12-20T11:03:43;1.83;;;1.25;;
26082;SDS011;13848;49.018;12.078;2023-12-20T11:06:10;1.30;;;1.05;;
26082;SDS011;13848;49.018;12.078;2023-12-20T11:08:46;2.10;;;1.02;;
26082;SDS011;13848;49.018;12.078;2023-12-20T11:11:18;1.00;;;0.90;;
26082;SDS011;13848;49.018;12.078;2023-12-20T11:13:53;2.28;;;1.33;;
26082;SDS011;13848;49.018;12.078;2023-12-20T11:16:22;1.42;;;1.00;;
26082;SDS011;13848;49.018;12.078;2023-12-20T11:18:50;1.13;;;1.02;;
26082;SDS011;13848;49.018;12.078;2023-12-20T11:21:16;2.42;;;1.30;;
26082;SDS011;13848;49.018;12.078;2023-12-20T11:23:42;1.80;;;1.20;;
26082;SDS011;13848;49.018;12.078;2023-12-20T11:26:08;2.65;;;1.40;;
26082;SDS011;13848;49.018;12.078;2023-12-20T11:28:35;2.25;;;1.30;;
26082;SDS011;13848;49.018;12.078;2023-12-20T11:31:02;4.35;;;1.42;;
26082;SDS011;13848;49.018;12.078;2023-12-20T11:33:29;1.90;;;1.20;;
26082;SDS011;13848;49.018;12.078;2023-12-20T11:35:56;3.50;;;1.30;;
26082;SDS011;13848;49.018;12.078;2023-12-20T11:38:23;2.15;;;1.20;;
26082;SDS011;13848;49.018;12.078;2023-12-20T11:40:49;2.35;;;1.27;;
26082;SDS011;13848;49.018;12.078;2023-12-20T11:43:29;3.53;;;1.45;;
26082;SDS011;13848;49.018;12.078;2023-12-20T11:45:57;3.85;;;1.63;;
26082;SDS011;13848;49.018;12.078;2023-12-20T11:48:28;2.58;;;1.15;;
26082;SDS011;13848;49.018;12.078;2023-12-20T11:50:55;1.63;;;0.90;;
26082;SDS011;13848;49.018;12.078;2023-12-20T11:53:21;4.55;;;1.10;;
26082;SDS011;13848;49.018;12.078;2023-12-20T11:55:47;3.38;;;1.00;;
26082;SDS011;13848;49.018;12.078;2023-12-20T11:58:14;2.28;;;1.05;;
26082;SDS011;13848;49.018;12.078;2023-12-20T12:00:40;2.83;;;1.00;;
26082;SDS011;13848;49.018;12.078;2023-12-20T12:03:08;3.92;;;1.05;;
26082;SDS011;13848;49.018;12.078;2023-12-20T12:05:35;2.05;;;0.90;;
26082;SDS011;13848;49.018;12.078;2023-12-20T12:08:01;3.33;;;1.05;;
26082;SDS011;13848;49.018;12.078;2023-12-20T12:10:27;3.00;;;1.10;;
26082;SDS011;13848;49.018;12.078;2023-12-20T12:12:54;3.47;;;0.82;;
26082;SDS011;13848;49.018;12.078;2023-12-20T12:15:20;3.30;;;1.00;;
26082;SDS011;13848;49.018;12.078;2023-12-20T12:17:52;2.15;;;0.88;;
26082;SDS011;13848;49.018;12.078;2023-12-20T12:20:19;3.08;;;1.05;;
26082;SDS011;13848;49.018;12.078;2023-12-20T12:22:45;2.75;;;0.90;;
26082;SDS011;13848;49.018;12.078;2023-12-20T12:25:12;5.20;;;1.42;;
26082;SDS011;13848;49.018;12.078;2023-12-20T12:27:41;4.63;;;1.30;;
26082;SDS011;13848;49.018;12.078;2023-12-20T12:30:08;2.65;;;1.05;;
26082;SDS011;13848;49.018;12.078;2023-12-20T12:32:35;5.07;;;1.20;;
26082;SDS011;13848;49.018;12.078;2023-12-20T12:35:02;4.45;;;1.10;;
26082;SDS011;13848;49.018;12.078;2023-12-20T12:37:30;3.53;;;1.30;;
26082;SDS011;13848;49.018;12.078;2023-12-20T12:39:56;3.25;;;1.00;;
26082;SDS011;13848;49.018;12.078;2023-12-20T12:42:22;3.72;;;0.90;;
26082;SDS011;13848;49.018;12.078;2023-12-20T12:44:48;1.67;;;0.90;;
26082;SDS011;13848;49.018;12.078;2023-12-20T12:47:14;3.65;;;1.10;;
26082;SDS011;13848;49.018;12.078;2023-12-20T12:49:40;2.17;;;1.00;;
26082;SDS011;13848;49.018;12.078;2023-12-20T12:52:06;3.25;;;1.02;;
26082;SDS011;13848;49.018;12.078;2023-12-20T12:54:33;3.60;;;1.33;;
26082;SDS011;13848;49.018;12.078;2023-12-20T12:56:59;2.08;;;1.13;;
26082;SDS011;13848;49.018;12.078;2023-12-20T12:59:25;3.08;;;1.10;;
26082;SDS011;13848;49.018;12.078;2023-12-20T13:01:51;3.05;;;1.02;;
26082;SDS011;13848;49.018;12.078;2023-12-20T13:04:17;2.42;;;1.10;;
26082;SDS011;13848;49.018;12.078;2023-12-20T13:06:43;5.30;;;1.10;;
26082;SDS011;13848;49.018;12.078;2023-12-20T13:09:09;2.10;;;0.95;;
26082;SDS011;13848;49.018;12.078;2023-12-20T13:11:36;5.25;;;1.30;;
26082;SDS011;13848;49.018;12.078;2023-12-20T13:14:15;3.17;;;1.48;;
26082;SDS011;13848;49.018;12.078;2023-12-20T13:16:41;2.75;;;1.23;;
26082;SDS011;13848;49.018;12.078;2023-12-20T13:19:07;2.80;;;1.38;;
26082;SDS011;13848;49.018;12.078;2023-12-20T13:21:33;4.85;;;1.10;;
26082;SDS011;13848;49.018;12.078;2023-12-20T13:23:59;3.63;;;1.25;;
26082;SDS011;13848;49.018;12.078;2023-12-20T13:26:24;14.38;;;4.22;;
26082;SDS011;13848;49.018;12.078;2023-12-20T13:28:52;2.47;;;1.13;;
26082;SDS011;13848;49.018;12.078;2023-12-20T13:31:19;2.17;;;1.30;;
26082;SDS011;13848;49.018;12.078;2023-12-20T13:33:45;4.40;;;1.20;;
26082;SDS011;13848;49.018;12.078;2023-12-20T13:36:12;1.83;;;1.08;;
26082;SDS011;13848;49.018;12.078;2023-12-20T13:38:38;3.15;;;1.25;;
26082;SDS011;13848;49.018;12.078;2023-12-20T13:41:04;3.72;;;1.25;;
26082;SDS011;13848;49.018;12.078;2023-12-20T13:43:30;3.85;;;1.27;;
26082;SDS011;13848;49.018;12.078;2023-12-20T13:45:58;3.08;;;1.13;;
26082;SDS011;13848;49.018;12.078;2023-12-20T13:48:24;5.30;;;2.05;;
26082;SDS011;13848;49.018;12.078;2023-12-20T13:50:50;7.05;;;1.98;;
26082;SDS011;13848;49.018;12.078;2023-12-20T13:53:16;3.15;;;1.25;;
26082;SDS011;13848;49.018;12.078;2023-12-20T13:55:42;1.90;;;1.30;;
26082;SDS011;13848;49.018;12.078;2023-12-20T13:58:08;2.97;;;1.20;;
26082;SDS011;13848;49.018;12.078;2023-12-20T14:00:33;6.82;;;1.30;;
26082;SDS011;13848;49.018;12.078;2023-12-20T14:03:01;3.80;;;1.10;;
26082;SDS011;13848;49.018;12.078;2023-12-20T14:05:27;2.53;;;1.17;;
26082;SDS011;13848;49.018;12.078;2023-12-20T14:07:53;3.38;;;1.23;;
26082;SDS011;13848;49.018;12.078;2023-12-20T14:10:18;3.75;;;1.00;;
26082;SDS011;13848;49.018;12.078;2023-12-20T14:12:44;1.23;;;1.00;;
26082;SDS011;13848;49.018;12.078;2023-12-20T14:15:11;4.90;;;1.13;;
26082;SDS011;13848;49.018;12.078;2023-12-20T14:17:37;1.98;;;1.20;;
26082;SDS011;13848;49.018;12.078;2023-12-20T14:20:05;7.45;;;1.38;;
26082;SDS011;13848;49.018;12.078;2023-12-20T14:22:31;3.20;;;0.85;;
26082;SDS011;13848;49.018;12.078;2023-12-20T14:24:57;3.67;;;0.98;;
26082;SDS011;13848;49.018;12.078;2023-12-20T14:27:23;3.25;;;2.40;;